sensor_id;sensor_type;location;lat;lon;timestamp;P1;durP1;ratioP1;P2;durP2;ratioP2
45368;SDS011;51342;55.250;37.668;2022-07-23T00:04:15;12.82;;;9.10;;
45368;SDS011;51342;55.250;37.668;2022-07-23T00:06:47;11.90;;;9.27;;
45368;SDS011;51342;55.250;37.668;2022-07-23T00:09:18;10.23;;;8.93;;
45368;SDS011;51342;55.250;37.668;2022-07-23T00:11:49;11.18;;;9.50;;
45368;SDS011;51342;55.250;37.668;2022-07-23T00:14:21;10.88;;;8.70;;
45368;SDS011;51342;55.250;37.668;2022-07-23T00:16:52;14.32;;;9.18;;
45368;SDS011;51342;55.250;37.668;2022-07-23T00:19:24;11.25;;;8.90;;
45368;SDS011;51342;55.250;37.668;2022-07-23T00:21:55;10.45;;;9.02;;
45368;SDS011;51342;55.250;37.668;2022-07-23T00:24:26;9.73;;;8.73;;
45368;SDS011;51342;55.250;37.668;2022-07-23T00:26:58;10.15;;;8.63;;
45368;SDS011;51342;55.250;37.668;2022-07-23T00:29:29;9.38;;;8.32;;
45368;SDS011;51342;55.250;37.668;2022-07-23T00:32:00;12.00;;;8.57;;
45368;SDS011;51342;55.250;37.668;2022-07-23T00:34:32;13.38;;;7.88;;
45368;SDS011;51342;55.250;37.668;2022-07-23T00:37:04;8.20;;;7.40;;
45368;SDS011;51342;55.250;37.668;2022-07-23T00:39:35;12.20;;;7.50;;
45368;SDS011;51342;55.250;37.668;2022-07-23T00:42:06;8.73;;;7.82;;
45368;SDS011;51342;55.250;37.668;2022-07-23T00:44:38;11.23;;;8.18;;
45368;SDS011;51342;55.250;37.668;2022-07-23T00:47:10;9.93;;;8.32;;
45368;SDS011;51342;55.250;37.668;2022-07-23T00:49:41;9.52;;;7.85;;
45368;SDS011;51342;55.250;37.668;2022-07-23T00:52:12;9.70;;;8.40;;
45368;SDS011;51342;55.250;37.668;2022-07-23T00:54:44;12.48;;;8.70;;
45368;SDS011;51342;55.250;37.668;2022-07-23T00:57:15;9.13;;;8.02;;
45368;SDS011;51342;55.250;37.668;2022-07-23T00:59:47;11.55;;;8.15;;
45368;SDS011;51342;55.250;37.668;2022-07-23T01:02:18;9.35;;;8.43;;
45368;SDS011;51342;55.250;37.668;2022-07-23T01:04:50;10.48;;;8.25;;
45368;SDS011;51342;55.250;37.668;2022-07-23T01:07:22;11.95;;;8.35;;
45368;SDS011;51342;55.250;37.668;2022-07-23T01:09:54;10.07;;;7.72;;
45368;SDS011;51342;55.250;37.668;2022-07-23T01:12:26;9.90;;;8.00;;
45368;SDS011;51342;55.250;37.668;2022-07-23T01:14:59;9.65;;;7.88;;
45368;SDS011;51342;55.250;37.668;2022-07-23T01:17:33;9.27;;;8.10;;
45368;SDS011;51342;55.250;37.668;2022-07-23T01:20:04;9.35;;;8.38;;
45368;SDS011;51342;55.250;37.668;2022-07-23T01:22:37;9.85;;;8.20;;
45368;SDS011;51342;55.250;37.668;2022-07-23T01:25:08;12.73;;;8.55;;
45368;SDS011;51342;55.250;37.668;2022-07-23T01:27:41;11.00;;;8.60;;
45368;SDS011;51342;55.250;37.668;2022-07-23T01:30:13;11.13;;;8.13;;
45368;SDS011;51342;55.250;37.668;2022-07-23T01:32:45;8.93;;;7.53;;
45368;SDS011;51342;55.250;37.668;2022-07-23T01:35:17;8.80;;;7.90;;
45368;SDS011;51342;55.250;37.668;2022-07-23T01:37:48;10.68;;;8.07;;
45368;SDS011;51342;55.250;37.668;2022-07-23T01:40:21;10.95;;;7.60;;
45368;SDS011;51342;55.250;37.668;2022-07-23T01:42:53;10.35;;;8.32;;
45368;SDS011;51342;55.250;37.668;2022-07-23T01:45:24;9.00;;;7.88;;
45368;SDS011;51342;55.250;37.668;2022-07-23T01:47:56;8.98;;;8.10;;
45368;SDS011;51342;55.250;37.668;2022-07-23T01:50:28;9.82;;;7.47;;
45368;SDS011;51342;55.250;37.668;2022-07-23T01:53:17;9.20;;;7.80;;
45368;SDS011;51342;55.250;37.668;2022-07-23T01:55:48;9.25;;;7.57;;
45368;SDS011;51342;55.250;37.668;2022-07-23T01:58:20;11.95;;;8.25;;
45368;SDS011;51342;55.250;37.668;2022-07-23T02:00:51;10.20;;;8.63;;
45368;SDS011;51342;55.250;37.668;2022-07-23T02:03:23;8.82;;;7.72;;
45368;SDS011;51342;55.250;37.668;2022-07-23T02:05:55;10.02;;;8.05;;
45368;SDS011;51342;55.250;37.668;2022-07-23T02:08:29;9.90;;;8.48;;
45368;SDS011;51342;55.250;37.668;2022-07-23T02:11:01;9.18;;;7.43;;
45368;SDS011;51342;55.250;37.668;2022-07-23T02:13:32;10.43;;;8.65;;
45368;SDS011;51342;55.250;37.668;2022-07-23T02:16:04;8.68;;;7.60;;
45368;SDS011;51342;55.250;37.668;2022-07-23T02:18:36;9.45;;;7.28;;
45368;SDS011;51342;55.250;37.668;2022-07-23T02:21:07;8.15;;;7.15;;
45368;SDS011;51342;55.250;37.668;2022-07-23T02:23:38;9.38;;;6.95;;
45368;SDS011;51342;55.250;37.668;2022-07-23T02:26:10;7.95;;;6.18;;
45368;SDS011;51342;55.250;37.668;2022-07-23T02:28:41;7.30;;;6.50;;
45368;SDS011;51342;55.250;37.668;2022-07-23T02:31:13;5.63;;;5.10;;
45368;SDS011;51342;55.250;37.668;2022-07-23T02:33:44;8.25;;;5.18;;
45368;SDS011;51342;55.250;37.668;2022-07-23T02:36:16;7.32;;;6.05;;
45368;SDS011;51342;55.250;37.668;2022-07-23T02:38:47;7.30;;;6.00;;
45368;SDS011;51342;55.250;37.668;2022-07-23T02:41:19;6.97;;;5.32;;
45368;SDS011;51342;55.250;37.668;2022-07-23T02:43:51;6.85;;;5.00;;
45368;SDS011;51342;55.250;37.668;2022-07-23T02:46:22;6.45;;;5.82;;
45368;SDS011;51342;55.250;37.668;2022-07-23T02:48:54;6.30;;;4.95;;
45368;SDS011;51342;55.250;37.668;2022-07-23T02:51:25;6.65;;;5.28;;
45368;SDS011;51342;55.250;37.668;2022-07-23T02:54:01;6.95;;;6.15;;
45368;SDS011;51342;55.250;37.668;2022-07-23T02:56:33;7.75;;;6.82;;
45368;SDS011;51342;55.250;37.668;2022-07-23T02:59:04;10.80;;;6.35;;
45368;SDS011;51342;55.250;37.668;2022-07-23T03:01:36;9.90;;;6.25;;
45368;SDS011;51342;55.250;37.668;2022-07-23T03:04:07;9.05;;;6.20;;
45368;SDS011;51342;55.250;37.668;2022-07-23T03:06:39;11.93;;;6.50;;
45368;SDS011;51342;55.250;37.668;2022-07-23T03:09:10;7.07;;;6.07;;
45368;SDS011;51342;55.250;37.668;2022-07-23T03:11:43;10.75;;;5.93;;
45368;SDS011;51342;55.250;37.668;2022-07-23T03:14:15;7.80;;;5.72;;
45368;SDS011;51342;55.250;37.668;2022-07-23T03:16:47;10.48;;;5.82;;
45368;SDS011;51342;55.250;37.668;2022-07-23T03:19:20;7.00;;;5.68;;
45368;SDS011;51342;55.250;37.668;2022-07-23T03:21:51;8.05;;;5.80;;
45368;SDS011;51342;55.250;37.668;2022-07-23T03:24:23;8.68;;;5.90;;
45368;SDS011;51342;55.250;37.668;2022-07-23T03:27:14;7.90;;;5.53;;
45368;SDS011;51342;55.250;37.668;2022-07-23T03:29:46;8.68;;;5.60;;
45368;SDS011;51342;55.250;37.668;2022-07-23T03:32:18;10.60;;;5.38;;
45368;SDS011;51342;55.250;37.668;2022-07-23T03:34:50;11.77;;;6.03;;
45368;SDS011;51342;55.250;37.668;2022-07-23T03:37:22;8.50;;;5.50;;
45368;SDS011;51342;55.250;37.668;2022-07-23T03:39:53;10.15;;;5.53;;
45368;SDS011;51342;55.250;37.668;2022-07-23T03:42:25;7.25;;;5.65;;
45368;SDS011;51342;55.250;37.668;2022-07-23T03:44:56;6.88;;;6.18;;
45368;SDS011;51342;55.250;37.668;2022-07-23T03:47:28;10.93;;;5.40;;
45368;SDS011;51342;55.250;37.668;2022-07-23T03:49:59;6.55;;;5.80;;
45368;SDS011;51342;55.250;37.668;2022-07-23T03:52:30;8.65;;;6.13;;
45368;SDS011;51342;55.250;37.668;2022-07-23T03:55:02;9.25;;;5.57;;
45368;SDS011;51342;55.250;37.668;2022-07-23T03:57:34;9.52;;;5.72;;
45368;SDS011;51342;55.250;37.668;2022-07-23T04:00:06;8.30;;;5.57;;
45368;SDS011;51342;55.250;37.668;2022-07-23T04:02:44;7.70;;;5.85;;
45368;SDS011;51342;55.250;37.668;2022-07-23T04:05:17;6.75;;;5.15;;
45368;SDS011;51342;55.250;37.668;2022-07-23T04:07:51;7.53;;;6.00;;
45368;SDS011;51342;55.250;37.668;2022-07-23T04:10:23;10.70;;;5.88;;
45368;SDS011;51342;55.250;37.668;2022-07-23T04:12:55;9.45;;;5.60;;
45368;SDS011;51342;55.250;37.668;2022-07-23T04:15:26;7.18;;;5.30;;
45368;SDS011;51342;55.250;37.668;2022-07-23T04:17:57;9.05;;;5.78;;
45368;SDS011;51342;55.250;37.668;2022-07-23T04:20:36;8.48;;;5.53;;
45368;SDS011;51342;55.250;37.668;2022-07-23T04:23:08;7.82;;;6.25;;
45368;SDS011;51342;55.250;37.668;2022-07-23T04:25:41;10.45;;;5.45;;
45368;SDS011;51342;55.250;37.668;2022-07-23T04:28:12;7.85;;;5.60;;
45368;SDS011;51342;55.250;37.668;2022-07-23T04:30:43;6.93;;;5.28;;
45368;SDS011;51342;55.250;37.668;2022-07-23T04:33:17;7.53;;;5.35;;
45368;SDS011;51342;55.250;37.668;2022-07-23T04:35:51;8.98;;;5.07;;
45368;SDS011;51342;55.250;37.668;2022-07-23T04:38:25;10.68;;;4.97;;
45368;SDS011;51342;55.250;37.668;2022-07-23T04:41:00;6.47;;;5.07;;
45368;SDS011;51342;55.250;37.668;2022-07-23T04:43:32;8.43;;;4.97;;
45368;SDS011;51342;55.250;37.668;2022-07-23T04:46:03;7.00;;;5.25;;
45368;SDS011;51342;55.250;37.668;2022-07-23T04:48:42;6.32;;;4.82;;
45368;SDS011;51342;55.250;37.668;2022-07-23T04:51:14;9.65;;;5.60;;
45368;SDS011;51342;55.250;37.668;2022-07-23T04:53:45;7.95;;;5.47;;
45368;SDS011;51342;55.250;37.668;2022-07-23T04:56:17;8.07;;;5.20;;
45368;SDS011;51342;55.250;37.668;2022-07-23T04:58:48;9.73;;;5.43;;
45368;SDS011;51342;55.250;37.668;2022-07-23T05:01:21;6.97;;;5.80;;
45368;SDS011;51342;55.250;37.668;2022-07-23T05:03:52;8.60;;;5.60;;
45368;SDS011;51342;55.250;37.668;2022-07-23T05:06:24;9.50;;;5.75;;
45368;SDS011;51342;55.250;37.668;2022-07-23T05:08:55;9.10;;;5.57;;
45368;SDS011;51342;55.250;37.668;2022-07-23T05:11:27;6.38;;;5.53;;
45368;SDS011;51342;55.250;37.668;2022-07-23T05:13:59;8.52;;;5.57;;
45368;SDS011;51342;55.250;37.668;2022-07-23T05:16:30;9.18;;;5.78;;
45368;SDS011;51342;55.250;37.668;2022-07-23T05:19:06;10.10;;;6.23;;
45368;SDS011;51342;55.250;37.668;2022-07-23T05:21:40;8.75;;;5.70;;
45368;SDS011;51342;55.250;37.668;2022-07-23T05:24:11;6.95;;;6.25;;
45368;SDS011;51342;55.250;37.668;2022-07-23T05:26:43;7.25;;;5.70;;
45368;SDS011;51342;55.250;37.668;2022-07-23T05:29:15;7.93;;;5.63;;
45368;SDS011;51342;55.250;37.668;2022-07-23T05:31:46;8.60;;;5.70;;
45368;SDS011;51342;55.250;37.668;2022-07-23T05:34:18;8.23;;;6.10;;
45368;SDS011;51342;55.250;37.668;2022-07-23T05:36:51;9.02;;;6.00;;
45368;SDS011;51342;55.250;37.668;2022-07-23T05:39:23;13.35;;;6.60;;
45368;SDS011;51342;55.250;37.668;2022-07-23T05:41:54;7.10;;;5.90;;
45368;SDS011;51342;55.250;37.668;2022-07-23T05:44:26;8.45;;;5.93;;
45368;SDS011;51342;55.250;37.668;2022-07-23T05:46:58;7.03;;;6.10;;
45368;SDS011;51342;55.250;37.668;2022-07-23T05:49:32;8.45;;;6.10;;
45368;SDS011;51342;55.250;37.668;2022-07-23T05:52:22;6.47;;;5.85;;
45368;SDS011;51342;55.250;37.668;2022-07-23T05:55:12;6.80;;;6.00;;
45368;SDS011;51342;55.250;37.668;2022-07-23T05:57:44;7.18;;;5.93;;
45368;SDS011;51342;55.250;37.668;2022-07-23T06:00:15;7.28;;;5.95;;
45368;SDS011;51342;55.250;37.668;2022-07-23T06:02:49;8.65;;;6.13;;
45368;SDS011;51342;55.250;37.668;2022-07-23T06:05:21;7.97;;;6.00;;
45368;SDS011;51342;55.250;37.668;2022-07-23T06:07:53;6.55;;;5.95;;
45368;SDS011;51342;55.250;37.668;2022-07-23T06:10:25;6.65;;;5.40;;
45368;SDS011;51342;55.250;37.668;2022-07-23T06:12:57;7.32;;;5.47;;
45368;SDS011;51342;55.250;37.668;2022-07-23T06:15:29;6.22;;;5.57;;
45368;SDS011;51342;55.250;37.668;2022-07-23T06:18:01;6.13;;;5.53;;
45368;SDS011;51342;55.250;37.668;2022-07-23T06:20:32;6.00;;;5.28;;
45368;SDS011;51342;55.250;37.668;2022-07-23T06:23:04;6.22;;;5.60;;
45368;SDS011;51342;55.250;37.668;2022-07-23T06:25:35;5.88;;;5.28;;
45368;SDS011;51342;55.250;37.668;2022-07-23T06:28:07;5.60;;;5.10;;
45368;SDS011;51342;55.250;37.668;2022-07-23T06:30:38;6.93;;;5.95;;
45368;SDS011;51342;55.250;37.668;2022-07-23T06:33:10;10.70;;;6.25;;
45368;SDS011;51342;55.250;37.668;2022-07-23T06:35:42;7.75;;;6.05;;
45368;SDS011;51342;55.250;37.668;2022-07-23T06:38:13;7.85;;;5.93;;
45368;SDS011;51342;55.250;37.668;2022-07-23T06:40:46;7.40;;;5.20;;
45368;SDS011;51342;55.250;37.668;2022-07-23T06:43:17;6.45;;;5.63;;
45368;SDS011;51342;55.250;37.668;2022-07-23T06:45:50;7.03;;;5.10;;
45368;SDS011;51342;55.250;37.668;2022-07-23T06:48:21;6.32;;;5.57;;
45368;SDS011;51342;55.250;37.668;2022-07-23T06:50:54;6.85;;;5.80;;
45368;SDS011;51342;55.250;37.668;2022-07-23T06:53:28;6.72;;;6.03;;
45368;SDS011;51342;55.250;37.668;2022-07-23T06:56:00;5.60;;;5.10;;
45368;SDS011;51342;55.250;37.668;2022-07-23T06:58:32;6.47;;;5.45;;
45368;SDS011;51342;55.250;37.668;2022-07-23T07:01:03;8.40;;;5.93;;
45368;SDS011;51342;55.250;37.668;2022-07-23T07:03:35;5.88;;;5.28;;
45368;SDS011;51342;55.250;37.668;2022-07-23T07:06:06;6.93;;;5.22;;
45368;SDS011;51342;55.250;37.668;2022-07-23T07:08:38;7.72;;;4.82;;
45368;SDS011;51342;55.250;37.668;2022-07-23T07:11:09;5.53;;;4.80;;
45368;SDS011;51342;55.250;37.668;2022-07-23T07:13:41;5.32;;;4.82;;
45368;SDS011;51342;55.250;37.668;2022-07-23T07:16:13;5.47;;;4.90;;
45368;SDS011;51342;55.250;37.668;2022-07-23T07:18:44;5.82;;;5.10;;
45368;SDS011;51342;55.250;37.668;2022-07-23T07:21:16;5.40;;;4.90;;
45368;SDS011;51342;55.250;37.668;2022-07-23T07:23:47;6.03;;;4.78;;
45368;SDS011;51342;55.250;37.668;2022-07-23T07:26:18;6.63;;;4.78;;
45368;SDS011;51342;55.250;37.668;2022-07-23T07:28:50;5.88;;;4.90;;
45368;SDS011;51342;55.250;37.668;2022-07-23T07:31:21;10.30;;;4.93;;
45368;SDS011;51342;55.250;37.668;2022-07-23T07:33:53;6.65;;;5.32;;
45368;SDS011;51342;55.250;37.668;2022-07-23T07:36:24;6.63;;;4.70;;
45368;SDS011;51342;55.250;37.668;2022-07-23T07:38:55;5.70;;;4.82;;
45368;SDS011;51342;55.250;37.668;2022-07-23T07:41:27;6.38;;;4.93;;
45368;SDS011;51342;55.250;37.668;2022-07-23T07:43:58;6.55;;;5.35;;
45368;SDS011;51342;55.250;37.668;2022-07-23T07:46:30;6.35;;;5.75;;
45368;SDS011;51342;55.250;37.668;2022-07-23T07:49:01;7.53;;;4.97;;
45368;SDS011;51342;55.250;37.668;2022-07-23T07:51:33;5.25;;;4.72;;
45368;SDS011;51342;55.250;37.668;2022-07-23T07:54:04;5.97;;;5.20;;
45368;SDS011;51342;55.250;37.668;2022-07-23T07:56:36;6.82;;;5.10;;
45368;SDS011;51342;55.250;37.668;2022-07-23T07:59:07;6.25;;;5.00;;
45368;SDS011;51342;55.250;37.668;2022-07-23T08:01:38;5.72;;;4.93;;
45368;SDS011;51342;55.250;37.668;2022-07-23T08:04:10;6.15;;;5.53;;
45368;SDS011;51342;55.250;37.668;2022-07-23T08:06:41;5.55;;;5.05;;
45368;SDS011;51342;55.250;37.668;2022-07-23T08:09:13;5.78;;;5.00;;
45368;SDS011;51342;55.250;37.668;2022-07-23T08:11:44;7.68;;;5.43;;
45368;SDS011;51342;55.250;37.668;2022-07-23T08:14:16;6.88;;;5.60;;
45368;SDS011;51342;55.250;37.668;2022-07-23T08:16:47;6.45;;;5.85;;
45368;SDS011;51342;55.250;37.668;2022-07-23T08:19:18;7.05;;;6.03;;
45368;SDS011;51342;55.250;37.668;2022-07-23T08:21:50;8.63;;;6.43;;
45368;SDS011;51342;55.250;37.668;2022-07-23T08:24:21;7.50;;;6.30;;
45368;SDS011;51342;55.250;37.668;2022-07-23T08:26:53;13.13;;;11.75;;
45368;SDS011;51342;55.250;37.668;2022-07-23T08:29:24;10.00;;;6.50;;
45368;SDS011;51342;55.250;37.668;2022-07-23T08:31:55;7.15;;;6.45;;
45368;SDS011;51342;55.250;37.668;2022-07-23T08:34:27;8.48;;;7.45;;
45368;SDS011;51342;55.250;37.668;2022-07-23T08:36:58;7.45;;;6.40;;
45368;SDS011;51342;55.250;37.668;2022-07-23T08:39:30;9.15;;;7.07;;
45368;SDS011;51342;55.250;37.668;2022-07-23T08:42:01;10.10;;;6.97;;
45368;SDS011;51342;55.250;37.668;2022-07-23T08:44:33;9.57;;;7.32;;
45368;SDS011;51342;55.250;37.668;2022-07-23T08:47:06;8.38;;;6.88;;
45368;SDS011;51342;55.250;37.668;2022-07-23T08:49:38;7.53;;;6.78;;
45368;SDS011;51342;55.250;37.668;2022-07-23T08:52:10;8.50;;;6.75;;
45368;SDS011;51342;55.250;37.668;2022-07-23T08:54:42;8.00;;;6.53;;
45368;SDS011;51342;55.250;37.668;2022-07-23T08:57:14;10.57;;;6.65;;
45368;SDS011;51342;55.250;37.668;2022-07-23T08:59:46;7.45;;;6.72;;
45368;SDS011;51342;55.250;37.668;2022-07-23T09:02:17;11.35;;;7.25;;
45368;SDS011;51342;55.250;37.668;2022-07-23T09:04:49;7.18;;;6.57;;
45368;SDS011;51342;55.250;37.668;2022-07-23T09:07:20;7.20;;;6.50;;
45368;SDS011;51342;55.250;37.668;2022-07-23T09:10:04;7.10;;;6.40;;
45368;SDS011;51342;55.250;37.668;2022-07-23T09:12:37;8.48;;;7.55;;
45368;SDS011;51342;55.250;37.668;2022-07-23T09:15:09;7.65;;;6.78;;
45368;SDS011;51342;55.250;37.668;2022-07-23T09:17:41;8.73;;;6.68;;
45368;SDS011;51342;55.250;37.668;2022-07-23T09:20:14;7.72;;;7.00;;
45368;SDS011;51342;55.250;37.668;2022-07-23T09:22:47;7.75;;;7.03;;
45368;SDS011;51342;55.250;37.668;2022-07-23T09:25:19;8.00;;;7.18;;
45368;SDS011;51342;55.250;37.668;2022-07-23T09:27:52;8.18;;;7.38;;
45368;SDS011;51342;55.250;37.668;2022-07-23T09:30:26;7.88;;;7.07;;
45368;SDS011;51342;55.250;37.668;2022-07-23T09:33:06;8.30;;;7.45;;
45368;SDS011;51342;55.250;37.668;2022-07-23T09:35:46;8.70;;;7.22;;
45368;SDS011;51342;55.250;37.668;2022-07-23T09:38:22;7.60;;;6.88;;
45368;SDS011;51342;55.250;37.668;2022-07-23T09:41:10;9.13;;;7.70;;
45368;SDS011;51342;55.250;37.668;2022-07-23T09:43:42;9.38;;;7.90;;
45368;SDS011;51342;55.250;37.668;2022-07-23T09:48:56;8.95;;;7.78;;
45368;SDS011;51342;55.250;37.668;2022-07-23T09:51:27;8.52;;;7.75;;
45368;SDS011;51342;55.250;37.668;2022-07-23T09:53:59;8.85;;;7.20;;
45368;SDS011;51342;55.250;37.668;2022-07-23T09:56:30;9.07;;;8.02;;
45368;SDS011;51342;55.250;37.668;2022-07-23T09:59:04;8.48;;;7.55;;
45368;SDS011;51342;55.250;37.668;2022-07-23T10:01:38;11.65;;;8.07;;
45368;SDS011;51342;55.250;37.668;2022-07-23T10:04:10;10.32;;;8.00;;
45368;SDS011;51342;55.250;37.668;2022-07-23T10:07:06;8.00;;;7.20;;
45368;SDS011;51342;55.250;37.668;2022-07-23T10:09:58;8.32;;;7.43;;
45368;SDS011;51342;55.250;37.668;2022-07-23T10:12:48;9.18;;;7.53;;
45368;SDS011;51342;55.250;37.668;2022-07-23T10:15:39;10.52;;;8.13;;
45368;SDS011;51342;55.250;37.668;2022-07-23T10:18:12;8.80;;;7.90;;
45368;SDS011;51342;55.250;37.668;2022-07-23T10:20:44;9.00;;;7.43;;
45368;SDS011;51342;55.250;37.668;2022-07-23T10:24:04;9.57;;;8.20;;
45368;SDS011;51342;55.250;37.668;2022-07-23T10:26:24;7.75;;;6.97;;
45368;SDS011;51342;55.250;37.668;2022-07-23T10:29:07;11.15;;;7.63;;
45368;SDS011;51342;55.250;37.668;2022-07-23T10:38:02;8.52;;;7.75;;
45368;SDS011;51342;55.250;37.668;2022-07-23T10:41:00;9.38;;;7.43;;
45368;SDS011;51342;55.250;37.668;2022-07-23T10:43:34;8.02;;;7.22;;
45368;SDS011;51342;55.250;37.668;2022-07-23T10:54:48;8.02;;;7.20;;
45368;SDS011;51342;55.250;37.668;2022-07-23T10:57:28;8.43;;;7.63;;
45368;SDS011;51342;55.250;37.668;2022-07-23T11:02:34;9.40;;;7.47;;
45368;SDS011;51342;55.250;37.668;2022-07-23T11:05:10;8.10;;;7.30;;
45368;SDS011;51342;55.250;37.668;2022-07-23T11:10:45;8.30;;;7.53;;
45368;SDS011;51342;55.250;37.668;2022-07-23T11:32:06;7.70;;;6.82;;
45368;SDS011;51342;55.250;37.668;2022-07-23T11:34:54;7.72;;;7.03;;
45368;SDS011;51342;55.250;37.668;2022-07-23T11:40:07;7.18;;;6.55;;
45368;SDS011;51342;55.250;37.668;2022-07-23T11:43:24;7.40;;;6.70;;
45368;SDS011;51342;55.250;37.668;2022-07-23T11:45:38;8.68;;;7.78;;
45368;SDS011;51342;55.250;37.668;2022-07-23T11:48:22;8.57;;;7.57;;
45368;SDS011;51342;55.250;37.668;2022-07-23T11:50:56;9.48;;;7.78;;
45368;SDS011;51342;55.250;37.668;2022-07-23T11:53:31;8.18;;;7.43;;
45368;SDS011;51342;55.250;37.668;2022-07-23T11:56:08;9.45;;;7.32;;
45368;SDS011;51342;55.250;37.668;2022-07-23T11:58:41;9.70;;;7.40;;
45368;SDS011;51342;55.250;37.668;2022-07-23T12:01:26;10.00;;;7.70;;
45368;SDS011;51342;55.250;37.668;2022-07-23T12:03:58;7.97;;;7.18;;
45368;SDS011;51342;55.250;37.668;2022-07-23T12:06:29;8.07;;;7.05;;
45368;SDS011;51342;55.250;37.668;2022-07-23T12:09:00;8.95;;;7.85;;
45368;SDS011;51342;55.250;37.668;2022-07-23T12:11:32;10.65;;;7.15;;
45368;SDS011;51342;55.250;37.668;2022-07-23T12:14:03;8.10;;;7.30;;
45368;SDS011;51342;55.250;37.668;2022-07-23T12:16:34;9.57;;;7.32;;
45368;SDS011;51342;55.250;37.668;2022-07-23T12:19:06;9.20;;;7.57;;
45368;SDS011;51342;55.250;37.668;2022-07-23T12:21:37;9.43;;;7.38;;
45368;SDS011;51342;55.250;37.668;2022-07-23T12:24:09;8.65;;;7.75;;
45368;SDS011;51342;55.250;37.668;2022-07-23T12:27:07;8.27;;;7.47;;
45368;SDS011;51342;55.250;37.668;2022-07-23T12:29:43;8.00;;;7.20;;
45368;SDS011;51342;55.250;37.668;2022-07-23T12:32:20;8.10;;;7.30;;
45368;SDS011;51342;55.250;37.668;2022-07-23T12:35:05;8.95;;;8.05;;
45368;SDS011;51342;55.250;37.668;2022-07-23T12:37:39;7.47;;;6.80;;
45368;SDS011;51342;55.250;37.668;2022-07-23T12:43:21;8.32;;;7.28;;
45368;SDS011;51342;55.250;37.668;2022-07-23T12:46:00;8.02;;;7.32;;
45368;SDS011;51342;55.250;37.668;2022-07-23T12:48:33;7.97;;;7.18;;
45368;SDS011;51342;55.250;37.668;2022-07-23T12:51:27;8.38;;;7.60;;
45368;SDS011;51342;55.250;37.668;2022-07-23T12:54:06;8.63;;;7.82;;
45368;SDS011;51342;55.250;37.668;2022-07-23T12:56:40;8.18;;;7.38;;
45368;SDS011;51342;55.250;37.668;2022-07-23T12:59:16;7.78;;;7.07;;
45368;SDS011;51342;55.250;37.668;2022-07-23T13:01:54;10.27;;;7.30;;
45368;SDS011;51342;55.250;37.668;2022-07-23T13:04:28;7.82;;;7.03;;
45368;SDS011;51342;55.250;37.668;2022-07-23T13:07:02;9.68;;;7.25;;
45368;SDS011;51342;55.250;37.668;2022-07-23T13:09:33;7.70;;;6.90;;
45368;SDS011;51342;55.250;37.668;2022-07-23T13:12:05;8.38;;;7.57;;
45368;SDS011;51342;55.250;37.668;2022-07-23T13:14:36;8.70;;;7.90;;
45368;SDS011;51342;55.250;37.668;2022-07-23T13:17:08;8.60;;;7.70;;
45368;SDS011;51342;55.250;37.668;2022-07-23T13:19:39;8.55;;;7.75;;
45368;SDS011;51342;55.250;37.668;2022-07-23T13:22:11;8.10;;;7.30;;
45368;SDS011;51342;55.250;37.668;2022-07-23T13:24:42;8.10;;;7.25;;
45368;SDS011;51342;55.250;37.668;2022-07-23T13:27:14;10.68;;;7.53;;
45368;SDS011;51342;55.250;37.668;2022-07-23T13:29:45;10.43;;;8.00;;
45368;SDS011;51342;55.250;37.668;2022-07-23T13:32:16;8.63;;;7.70;;
45368;SDS011;51342;55.250;37.668;2022-07-23T13:34:48;9.40;;;7.90;;
45368;SDS011;51342;55.250;37.668;2022-07-23T13:37:19;9.52;;;7.68;;
45368;SDS011;51342;55.250;37.668;2022-07-23T13:39:51;8.48;;;7.68;;
45368;SDS011;51342;55.250;37.668;2022-07-23T13:42:23;9.95;;;8.35;;
45368;SDS011;51342;55.250;37.668;2022-07-23T13:44:54;8.50;;;7.78;;
45368;SDS011;51342;55.250;37.668;2022-07-23T13:47:26;9.25;;;8.35;;
45368;SDS011;51342;55.250;37.668;2022-07-23T13:49:57;8.70;;;7.80;;
45368;SDS011;51342;55.250;37.668;2022-07-23T13:52:29;11.70;;;9.15;;
45368;SDS011;51342;55.250;37.668;2022-07-23T13:55:01;9.07;;;8.07;;
45368;SDS011;51342;55.250;37.668;2022-07-23T13:57:34;9.15;;;7.97;;
45368;SDS011;51342;55.250;37.668;2022-07-23T14:00:07;9.40;;;8.13;;
45368;SDS011;51342;55.250;37.668;2022-07-23T14:02:41;11.07;;;8.25;;
45368;SDS011;51342;55.250;37.668;2022-07-23T14:05:13;9.32;;;8.27;;
45368;SDS011;51342;55.250;37.668;2022-07-23T14:07:45;11.52;;;8.27;;
45368;SDS011;51342;55.250;37.668;2022-07-23T14:10:19;9.77;;;8.20;;
45368;SDS011;51342;55.250;37.668;2022-07-23T14:12:52;8.88;;;7.78;;
45368;SDS011;51342;55.250;37.668;2022-07-23T14:15:26;12.45;;;9.60;;
45368;SDS011;51342;55.250;37.668;2022-07-23T14:17:59;10.30;;;8.20;;
45368;SDS011;51342;55.250;37.668;2022-07-23T14:20:32;8.30;;;7.50;;
45368;SDS011;51342;55.250;37.668;2022-07-23T14:23:03;8.82;;;7.88;;
45368;SDS011;51342;55.250;37.668;2022-07-23T14:25:35;8.43;;;7.63;;
45368;SDS011;51342;55.250;37.668;2022-07-23T14:28:06;8.73;;;7.75;;
45368;SDS011;51342;55.250;37.668;2022-07-23T14:30:38;10.25;;;8.32;;
45368;SDS011;51342;55.250;37.668;2022-07-23T14:33:09;9.07;;;7.65;;
45368;SDS011;51342;55.250;37.668;2022-07-23T14:35:41;8.20;;;7.40;;
45368;SDS011;51342;55.250;37.668;2022-07-23T14:38:12;10.73;;;7.50;;
45368;SDS011;51342;55.250;37.668;2022-07-23T14:40:44;8.40;;;7.55;;
45368;SDS011;51342;55.250;37.668;2022-07-23T14:43:15;8.43;;;7.50;;
45368;SDS011;51342;55.250;37.668;2022-07-23T14:45:46;9.02;;;7.55;;
45368;SDS011;51342;55.250;37.668;2022-07-23T14:48:18;8.25;;;7.38;;
45368;SDS011;51342;55.250;37.668;2022-07-23T14:50:49;9.98;;;7.43;;
45368;SDS011;51342;55.250;37.668;2022-07-23T14:53:21;8.07;;;7.30;;
45368;SDS011;51342;55.250;37.668;2022-07-23T14:55:52;10.07;;;7.68;;
45368;SDS011;51342;55.250;37.668;2022-07-23T14:58:24;10.27;;;7.60;;
45368;SDS011;51342;55.250;37.668;2022-07-23T15:00:55;8.82;;;7.40;;
45368;SDS011;51342;55.250;37.668;2022-07-23T15:03:27;8.50;;;7.63;;
45368;SDS011;51342;55.250;37.668;2022-07-23T15:05:58;8.70;;;7.80;;
45368;SDS011;51342;55.250;37.668;2022-07-23T15:08:30;9.52;;;7.40;;
45368;SDS011;51342;55.250;37.668;2022-07-23T15:11:02;8.90;;;7.97;;
45368;SDS011;51342;55.250;37.668;2022-07-23T15:13:33;9.45;;;7.18;;
45368;SDS011;51342;55.250;37.668;2022-07-23T15:16:05;8.25;;;7.35;;
45368;SDS011;51342;55.250;37.668;2022-07-23T15:18:37;8.48;;;7.38;;
45368;SDS011;51342;55.250;37.668;2022-07-23T15:21:09;8.35;;;7.40;;
45368;SDS011;51342;55.250;37.668;2022-07-23T15:23:41;7.95;;;7.10;;
45368;SDS011;51342;55.250;37.668;2022-07-23T15:26:12;7.75;;;7.05;;
45368;SDS011;51342;55.250;37.668;2022-07-23T15:28:45;8.05;;;7.25;;
45368;SDS011;51342;55.250;37.668;2022-07-23T15:31:17;8.15;;;7.32;;
45368;SDS011;51342;55.250;37.668;2022-07-23T15:33:48;8.35;;;7.55;;
45368;SDS011;51342;55.250;37.668;2022-07-23T15:36:20;10.10;;;8.02;;
45368;SDS011;51342;55.250;37.668;2022-07-23T15:38:51;8.18;;;7.38;;
45368;SDS011;51342;55.250;37.668;2022-07-23T15:41:23;8.75;;;7.85;;
45368;SDS011;51342;55.250;37.668;2022-07-23T15:43:55;8.65;;;7.60;;
45368;SDS011;51342;55.250;37.668;2022-07-23T15:46:26;8.75;;;7.70;;
45368;SDS011;51342;55.250;37.668;2022-07-23T15:48:58;9.02;;;8.13;;
45368;SDS011;51342;55.250;37.668;2022-07-23T15:51:30;9.57;;;7.82;;
45368;SDS011;51342;55.250;37.668;2022-07-23T15:54:02;8.57;;;7.68;;
45368;SDS011;51342;55.250;37.668;2022-07-23T15:56:33;8.77;;;7.88;;